Time;durP1;ratioP1;P1;durP2;ratioP2;P2;SDS_P1;SDS_P2;PMS_P1;PMS_P2;Temp;Humidity;BMP_temperature;BMP_pressure;BME280_temperature;BME280_humidity;BME280_pressure;Samples;Min_cycle;Max_cycle;Signal;HPM_P1;HPM_P2
2022/12/10 00:02:26;;;;;;;10.97;6.23;;;3.40;99.90;;;;;;5113556;28;20468;-62
2022/12/10 00:04:55;;;;;;;16.07;7.03;;;3.40;99.90;;;;;;5113346;28;20479;-62
2022/12/10 00:07:22;;;;;;;13.93;7.50;;;3.40;99.90;;;;;;5114201;28;20515;-62
2022/12/10 00:09:48;;;;;;;13.60;7.50;;;3.70;99.90;;;;;;5113813;28;20443;-62
2022/12/10 00:12:15;;;;;;;9.90;6.33;;;3.80;99.90;;;;;;5115383;28;20933;-63
2022/12/10 00:14:42;;;;;;;13.60;6.87;;;3.60;99.90;;;;;;5117926;28;20833;-63
2022/12/10 00:17:09;;;;;;;14.07;7.23;;;3.50;99.90;;;;;;5118782;28;20510;-62
2022/12/10 00:19:36;;;;;;;13.07;6.80;;;3.50;99.90;;;;;;5119402;28;20487;-63
2022/12/10 00:22:04;;;;;;;14.23;7.40;;;3.40;99.90;;;;;;5119400;28;20476;-62
2022/12/10 00:24:31;;;;;;;8.77;5.37;;;3.40;99.90;;;;;;5119417;28;20500;-63
2022/12/10 00:26:58;;;;;;;13.87;7.23;;;3.40;99.90;;;;;;5119590;28;20858;-62
2022/12/10 00:29:25;;;;;;;13.90;6.83;;;3.30;99.90;;;;;;5117900;28;20419;-62
2022/12/10 00:31:52;;;;;;;9.07;6.33;;;3.30;99.90;;;;;;5118649;28;20514;-62
2022/12/10 00:34:19;;;;;;;10.77;7.10;;;3.30;99.90;;;;;;5118625;28;20458;-62
2022/12/10 00:36:48;;;;;;;16.10;8.07;;;3.30;99.90;;;;;;5118711;28;20501;-62
2022/12/10 00:39:19;;;;;;;11.80;6.40;;;3.20;99.90;;;;;;5119217;28;20464;-62
2022/12/10 00:41:47;;;;;;;10.17;5.97;;;3.10;99.90;;;;;;5118901;28;20932;-62
2022/12/10 00:44:14;;;;;;;11.27;6.67;;;3.10;99.90;;;;;;5119415;28;20513;-62
2022/12/10 00:46:41;;;;;;;14.43;7.57;;;3.20;99.90;;;;;;5119391;28;21096;-62
2022/12/10 00:49:08;;;;;;;13.53;5.90;;;3.20;99.90;;;;;;5118865;28;20541;-62
2022/12/10 00:51:35;;;;;;;13.20;7.30;;;3.20;99.90;;;;;;5119475;28;20939;-62
2022/12/10 00:54:02;;;;;;;12.90;5.37;;;3.20;99.90;;;;;;5118195;28;20831;-62
2022/12/10 00:56:33;;;;;;;15.20;7.17;;;3.00;99.90;;;;;;5118870;28;20819;-62
2022/12/10 00:59:00;;;;;;;12.10;6.20;;;3.20;99.90;;;;;;5117367;28;20521;-62
2022/12/10 01:01:31;;;;;;;15.20;8.13;;;3.20;99.90;;;;;;5118007;28;20492;-62
2022/12/10 01:04:00;;;;;;;10.97;5.10;;;3.30;99.90;;;;;;5118534;28;20481;-62
2022/12/10 01:06:29;;;;;;;12.33;6.20;;;3.20;99.90;;;;;;5119002;28;20522;-62
2022/12/10 01:08:58;;;;;;;10.37;6.67;;;3.10;99.90;;;;;;5118360;28;20474;-62
2022/12/10 01:11:28;;;;;;;12.43;6.00;;;3.30;99.90;;;;;;5117477;28;20922;-62
2022/12/10 01:13:57;;;;;;;12.27;6.57;;;3.40;99.90;;;;;;5117930;28;20534;-62
2022/12/10 01:16:25;;;;;;;13.37;6.70;;;3.40;99.90;;;;;;5117040;28;20488;-62
2022/12/10 01:18:54;;;;;;;11.83;6.23;;;3.40;99.90;;;;;;5118256;28;21022;-62
2022/12/10 01:21:22;;;;;;;12.17;6.37;;;3.40;99.90;;;;;;5117530;28;20421;-62
2022/12/10 01:23:50;;;;;;;10.60;7.50;;;3.40;99.90;;;;;;5116884;28;20921;-62
2022/12/10 01:26:19;;;;;;;9.00;5.60;;;3.60;99.90;;;;;;5119209;28;20420;-62
2022/12/10 01:28:46;;;;;;;16.93;8.07;;;3.60;99.90;;;;;;5117520;28;20881;-62
2022/12/10 01:31:17;;;;;;;11.30;5.40;;;3.50;99.90;;;;;;5117053;28;20470;-62
2022/12/10 01:33:44;;;;;;;11.53;7.27;;;3.60;99.90;;;;;;5117692;28;20448;-62
2022/12/10 01:36:14;;;;;;;11.47;6.60;;;3.60;99.90;;;;;;5117716;28;20479;-62
2022/12/10 01:38:41;;;;;;;11.87;6.87;;;3.50;99.90;;;;;;5117391;28;20947;-62
2022/12/10 01:41:13;;;;;;;12.87;4.97;;;3.30;99.90;;;;;;5117996;28;20899;-62
2022/12/10 01:43:56;;;;;;;7.43;4.60;;;3.20;99.90;;;;;;5118534;28;20535;-62
2022/12/10 01:46:26;;;;;;;11.50;6.63;;;3.20;99.90;;;;;;5116792;28;20799;-62
2022/12/10 01:48:53;;;;;;;8.27;5.10;;;3.20;99.90;;;;;;5116498;28;20480;-62
2022/12/10 01:51:21;;;;;;;15.17;6.97;;;3.40;99.90;;;;;;5116742;28;20765;-62
2022/12/10 01:53:49;;;;;;;9.47;6.20;;;3.50;99.90;;;;;;5116013;28;20539;-63
2022/12/10 01:56:17;;;;;;;13.77;8.07;;;3.70;99.90;;;;;;5115466;28;20465;-63
2022/12/10 01:58:45;;;;;;;10.67;5.80;;;3.70;99.90;;;;;;5116597;28;20785;-63
2022/12/10 02:01:15;;;;;;;5.50;3.50;;;3.60;99.90;;;;;;5118012;28;20461;-63
2022/12/10 02:03:58;;;;;;;10.67;5.37;;;3.50;99.90;;;;;;5117590;28;20473;-62
2022/12/10 02:06:33;;;;;;;13.97;7.20;;;3.50;99.90;;;;;;5117959;28;20724;-62
2022/12/10 02:09:09;;;;;;;12.20;6.77;;;3.50;99.90;;;;;;5118169;28;20430;-63
2022/12/10 02:11:42;;;;;;;10.30;5.10;;;3.50;99.90;;;;;;5117639;28;20443;-62
2022/12/10 02:14:16;;;;;;;9.00;4.80;;;3.50;99.90;;;;;;5117619;28;20466;-62
2022/12/10 02:16:49;;;;;;;14.27;5.53;;;3.40;99.90;;;;;;5118309;28;20487;-62
2022/12/10 02:19:27;;;;;;;8.57;4.97;;;3.40;99.90;;;;;;5117522;28;20454;-63
2022/12/10 02:21:56;;;;;;;11.73;6.43;;;3.20;99.90;;;;;;5116421;28;20452;-62
2022/12/10 02:24:28;;;;;;;14.00;7.43;;;3.30;99.90;;;;;;5116542;28;20484;-62
2022/12/10 02:27:05;;;;;;;9.73;5.73;;;3.20;99.90;;;;;;5118048;28;20515;-62
2022/12/10 02:29:36;;;;;;;11.30;5.63;;;3.30;99.90;;;;;;5117813;28;20476;-62
2022/12/10 02:32:07;;;;;;;13.33;7.00;;;3.30;99.90;;;;;;5117053;28;20516;-62
2022/12/10 02:34:39;;;;;;;11.40;7.27;;;3.30;99.90;;;;;;5117357;28;20416;-62
2022/12/10 02:37:11;;;;;;;10.23;5.90;;;3.10;99.90;;;;;;5116779;28;20462;-62
2022/12/10 02:39:43;;;;;;;13.70;7.83;;;2.90;99.90;;;;;;5117620;28;20443;-63
2022/12/10 02:42:11;;;;;;;11.47;5.57;;;2.80;99.90;;;;;;5117181;28;20470;-63
2022/12/10 02:44:44;;;;;;;14.43;6.97;;;2.90;99.90;;;;;;5116581;28;20423;-63
2022/12/10 02:47:13;;;;;;;15.30;6.40;;;3.10;99.90;;;;;;5116974;28;20598;-62
2022/12/10 02:49:41;;;;;;;11.70;4.40;;;3.10;99.90;;;;;;5117693;28;20480;-62
2022/12/10 02:52:09;;;;;;;12.60;5.67;;;3.30;99.90;;;;;;5117262;28;20810;-62
2022/12/10 02:54:40;;;;;;;15.60;7.87;;;3.40;99.90;;;;;;5117438;28;20574;-62
2022/12/10 02:57:23;;;;;;;8.13;5.03;;;3.40;99.90;;;;;;5115940;28;20555;-62
2022/12/10 03:00:09;;;;;;;10.80;7.40;;;3.40;99.90;;;;;;5115808;28;20935;-62
2022/12/10 03:02:47;;;;;;;7.63;5.73;;;3.20;99.90;;;;;;5115755;28;20910;-62
2022/12/10 03:05:20;;;;;;;10.57;6.37;;;3.00;99.90;;;;;;5115757;28;20562;-62
2022/12/10 03:07:56;;;;;;;10.33;6.40;;;3.10;99.90;;;;;;5115563;28;21006;-62
2022/12/10 03:10:28;;;;;;;11.53;5.50;;;3.10;99.90;;;;;;5116100;28;20463;-62
2022/12/10 03:12:59;;;;;;;9.50;5.33;;;3.10;99.90;;;;;;5116561;28;20457;-62
2022/12/10 03:15:34;;;;;;;9.73;4.83;;;3.10;99.90;;;;;;5116348;28;20543;-61
2022/12/10 03:18:04;;;;;;;10.00;5.07;;;3.10;99.90;;;;;;5116796;28;20517;-61
2022/12/10 03:20:33;;;;;;;10.77;4.97;;;3.30;99.90;;;;;;5116874;28;20462;-61
2022/12/10 03:23:01;;;;;;;11.93;6.60;;;3.50;99.90;;;;;;5116934;28;20412;-61
2022/12/10 03:25:31;;;;;;;13.57;6.17;;;3.40;99.90;;;;;;5116633;28;20505;-61
2022/12/10 03:28:00;;;;;;;14.00;7.20;;;3.30;99.90;;;;;;5116907;28;20487;-61
2022/12/10 03:30:28;;;;;;;10.97;5.43;;;3.20;99.90;;;;;;5116959;28;20502;-62
2022/12/10 03:32:57;;;;;;;10.80;6.63;;;3.20;99.90;;;;;;5116780;28;20537;-61
2022/12/10 03:35:25;;;;;;;12.70;5.73;;;3.10;99.90;;;;;;5115608;28;20850;-61
2022/12/10 03:37:53;;;;;;;10.63;5.83;;;3.00;99.90;;;;;;5116615;28;20458;-61
2022/12/10 03:40:23;;;;;;;9.70;6.60;;;2.90;99.90;;;;;;5116534;28;20788;-61
2022/12/10 03:42:50;;;;;;;10.60;5.23;;;2.90;99.90;;;;;;5116105;28;20501;-62
2022/12/10 03:45:17;;;;;;;8.77;5.60;;;2.90;99.90;;;;;;5114340;28;20427;-62
2022/12/10 03:47:44;;;;;;;10.00;7.10;;;2.90;99.90;;;;;;5120132;28;20537;-62
2022/12/10 03:50:12;;;;;;;7.50;5.03;;;2.90;99.90;;;;;;5119357;28;20462;-63
2022/12/10 03:52:39;;;;;;;9.30;5.50;;;3.10;99.90;;;;;;5118282;28;20429;-62
2022/12/10 03:55:07;;;;;;;10.87;5.40;;;3.20;99.90;;;;;;5118210;28;20922;-62
2022/12/10 03:57:34;;;;;;;10.30;6.07;;;3.20;99.90;;;;;;5119013;28;20415;-62
2022/12/10 04:00:02;;;;;;;8.47;4.63;;;3.30;99.90;;;;;;5119877;28;20956;-62
2022/12/10 04:02:29;;;;;;;7.60;5.60;;;3.20;99.90;;;;;;5120529;28;20932;-61
2022/12/10 04:04:56;;;;;;;12.40;6.40;;;3.30;99.90;;;;;;5120043;28;20711;-62
2022/12/10 04:07:24;;;;;;;6.83;4.97;;;3.50;99.90;;;;;;5119347;28;20483;-62
2022/12/10 04:09:51;;;;;;;8.63;5.00;;;3.40;99.90;;;;;;5120083;28;20514;-62
2022/12/10 04:12:18;;;;;;;7.10;4.53;;;3.30;99.90;;;;;;5120397;28;20542;-62
2022/12/10 04:17:29;;;;;;;11.53;4.70;;;3.30;99.90;;;;;;5119826;28;20387;-61
2022/12/10 04:19:56;;;;;;;7.77;4.17;;;3.40;99.90;;;;;;5120222;28;20790;-61
2022/12/10 04:27:55;;;;;;;11.37;5.63;;;3.20;99.90;;;;;;5120214;28;20546;-62
2022/12/10 04:30:22;;;;;;;8.57;5.50;;;2.80;99.90;;;;;;5120185;28;20460;-62
2022/12/10 04:32:49;;;;;;;8.50;4.97;;;2.60;99.90;;;;;;5119834;28;20419;-62
2022/12/10 04:35:16;;;;;;;14.70;4.83;;;2.50;99.90;;;;;;5120128;28;20508;-62
2022/12/10 04:37:44;;;;;;;8.27;5.17;;;2.40;99.90;;;;;;5119012;28;20773;-59
2022/12/10 04:40:12;;;;;;;11.40;4.40;;;2.30;99.90;;;;;;5119159;28;20911;-61
2022/12/10 04:42:39;;;;;;;11.30;5.33;;;2.50;99.90;;;;;;5119091;28;20834;-61
2022/12/10 04:45:07;;;;;;;11.83;6.37;;;2.60;99.90;;;;;;5119574;28;20484;-63
2022/12/10 04:47:34;;;;;;;11.67;6.43;;;2.80;99.90;;;;;;5119705;28;20515;-63
2022/12/10 04:50:00;;;;;;;7.83;4.67;;;3.00;99.90;;;;;;5119314;28;20469;-61
2022/12/10 04:52:27;;;;;;;9.90;5.50;;;3.10;99.90;;;;;;5119296;28;20448;-61
2022/12/10 04:54:56;;;;;;;9.17;6.30;;;3.00;99.90;;;;;;5119663;28;20801;-61
2022/12/10 04:57:22;;;;;;;13.43;6.83;;;3.20;99.90;;;;;;5118955;28;20863;-61
2022/12/10 04:59:49;;;;;;;11.50;5.77;;;3.30;99.90;;;;;;5118859;28;20488;-61
2022/12/10 05:02:16;;;;;;;10.23;6.10;;;3.20;99.90;;;;;;5118128;28;20532;-61
2022/12/10 05:04:43;;;;;;;9.33;5.37;;;3.20;99.90;;;;;;5118112;28;20458;-61
2022/12/10 05:07:10;;;;;;;9.27;5.80;;;3.20;99.90;;;;;;5117254;28;20539;-61
2022/12/10 05:09:39;;;;;;;11.50;6.03;;;3.20;99.90;;;;;;5116369;28;20530;-61
2022/12/10 05:12:08;;;;;;;12.60;7.90;;;3.50;99.90;;;;;;5116402;28;20531;-61
2022/12/10 05:14:34;;;;;;;10.50;6.63;;;3.60;99.90;;;;;;5116865;28;20495;-61
2022/12/10 05:17:01;;;;;;;14.93;5.80;;;3.40;99.90;;;;;;5116998;28;20415;-61
2022/12/10 05:19:28;;;;;;;16.60;6.30;;;3.10;99.90;;;;;;5116671;28;20786;-61
2022/12/10 05:24:40;;;;;;;10.37;6.07;;;2.50;99.90;;;;;;5118890;28;20548;-61
2022/12/10 05:27:08;;;;;;;11.20;5.93;;;2.40;99.90;;;;;;5118830;28;20450;-60
2022/12/10 05:29:35;;;;;;;13.17;5.60;;;2.50;99.90;;;;;;5118850;28;20937;-61
2022/12/10 05:32:03;;;;;;;17.17;5.80;;;2.70;99.90;;;;;;5117898;28;20437;-61
2022/12/10 05:34:30;;;;;;;9.77;5.37;;;2.80;99.90;;;;;;5118378;28;20488;-61
2022/12/10 05:36:57;;;;;;;10.07;6.20;;;3.00;99.90;;;;;;5117539;28;20458;-61
2022/12/10 05:39:24;;;;;;;12.10;7.67;;;3.10;99.90;;;;;;5117361;28;20932;-62
2022/12/10 05:41:59;;;;;;;9.67;5.10;;;3.10;99.90;;;;;;5118475;28;20443;-61
2022/12/10 05:44:27;;;;;;;10.00;5.47;;;3.00;99.90;;;;;;5118490;28;20734;-61
2022/12/10 05:46:54;;;;;;;12.53;6.57;;;3.00;99.90;;;;;;5118484;28;20847;-61
2022/12/10 05:49:21;;;;;;;10.47;5.90;;;3.20;99.90;;;;;;5118202;28;20517;-62
2022/12/10 05:51:48;;;;;;;12.37;6.03;;;3.20;99.90;;;;;;5118212;28;20470;-61
2022/12/10 05:54:15;;;;;;;17.40;7.67;;;3.10;99.90;;;;;;5117885;28;20459;-61
2022/12/10 05:56:42;;;;;;;13.60;5.27;;;3.00;99.90;;;;;;5118690;28;20463;-61
2022/12/10 05:59:10;;;;;;;10.00;5.80;;;2.90;99.90;;;;;;5118279;28;20476;-62
2022/12/10 06:01:38;;;;;;;10.83;6.57;;;2.90;99.90;;;;;;5117692;28;20533;-62
2022/12/10 06:04:06;;;;;;;10.90;5.70;;;2.90;99.90;;;;;;5117796;28;20507;-60
2022/12/10 06:06:35;;;;;;;13.17;6.53;;;2.70;99.90;;;;;;5117721;28;20484;-61
2022/12/10 06:09:03;;;;;;;13.37;7.57;;;2.90;99.90;;;;;;5116704;28;20494;-61
2022/12/10 06:11:30;;;;;;;10.00;5.63;;;2.70;99.90;;;;;;5116679;28;20514;-60
2022/12/10 06:13:58;;;;;;;13.90;5.67;;;2.60;99.90;;;;;;5117382;28;20458;-60
2022/12/10 06:16:27;;;;;;;8.63;4.73;;;2.60;99.90;;;;;;5117679;28;20416;-61
2022/12/10 06:18:56;;;;;;;11.47;5.20;;;2.50;99.90;;;;;;5117579;28;20454;-60
2022/12/10 06:21:23;;;;;;;8.70;5.30;;;2.60;99.90;;;;;;5117684;28;20454;-61
2022/12/10 06:23:51;;;;;;;13.30;6.70;;;2.60;99.90;;;;;;5118017;28;20423;-61
2022/12/10 06:26:20;;;;;;;8.83;5.30;;;2.60;99.90;;;;;;5117084;28;20448;-60
2022/12/10 06:28:47;;;;;;;11.13;4.77;;;2.50;99.90;;;;;;5116033;28;20516;-59
2022/12/10 06:31:15;;;;;;;8.47;3.33;;;2.50;99.90;;;;;;5115766;28;20495;-59
2022/12/10 06:33:42;;;;;;;9.50;5.27;;;2.60;99.90;;;;;;5116397;28;20483;-62
2022/12/10 06:36:12;;;;;;;11.47;6.67;;;2.80;99.90;;;;;;5117372;28;20507;-62
2022/12/10 06:38:39;;;;;;;10.00;4.40;;;2.80;99.90;;;;;;5116606;28;20866;-62
2022/12/10 06:41:08;;;;;;;10.90;4.87;;;2.70;99.90;;;;;;5115224;28;20521;-62
2022/12/10 06:43:36;;;;;;;12.70;6.17;;;2.90;99.90;;;;;;5115197;28;20531;-62
2022/12/10 06:46:06;;;;;;;10.90;6.50;;;2.90;99.90;;;;;;5115127;28;21003;-63
2022/12/10 06:48:33;;;;;;;13.17;6.27;;;2.90;99.90;;;;;;5115396;28;20491;-62
2022/12/10 06:51:00;;;;;;;11.10;5.87;;;2.80;99.90;;;;;;5115551;28;20463;-62
2022/12/10 06:53:28;;;;;;;17.37;7.70;;;2.80;99.90;;;;;;5115409;28;20506;-62
2022/12/10 06:55:58;;;;;;;13.43;5.23;;;2.60;99.90;;;;;;5116776;28;20546;-61
2022/12/10 06:58:25;;;;;;;19.40;7.53;;;2.50;99.90;;;;;;5092605;28;20477;-63
2022/12/10 07:00:52;;;;;;;10.07;6.00;;;2.60;99.90;;;;;;5107176;27;20480;-63
2022/12/10 07:03:19;;;;;;;11.10;5.20;;;2.60;99.90;;;;;;5116061;28;20820;-62
2022/12/10 07:05:46;;;;;;;10.27;4.60;;;2.50;99.90;;;;;;5115539;28;20477;-62
2022/12/10 07:08:14;;;;;;;10.67;5.30;;;2.80;99.90;;;;;;5133262;27;20539;-62
2022/12/10 07:10:42;;;;;;;9.50;5.67;;;3.60;99.90;;;;;;5136729;27;20498;-62
2022/12/10 07:13:09;;;;;;;7.50;3.50;;;3.90;99.90;;;;;;5132214;27;20510;-63
2022/12/10 07:15:36;;;;;;;12.23;5.07;;;4.30;99.90;;;;;;5109854;28;20455;-62
2022/12/10 07:18:03;;;;;;;12.83;6.20;;;4.50;99.90;;;;;;5112532;28;20448;-62
2022/12/10 07:20:31;;;;;;;10.30;5.73;;;4.40;99.90;;;;;;5107921;28;20971;-63
2022/12/10 07:22:58;;;;;;;13.87;5.43;;;3.90;99.90;;;;;;5107920;28;20768;-63
2022/12/10 07:25:25;;;;;;;11.93;5.43;;;3.30;99.90;;;;;;5107562;28;20477;-63
2022/12/10 07:27:53;;;;;;;13.93;8.20;;;3.00;99.90;;;;;;5115449;28;20880;-62
2022/12/10 07:30:20;;;;;;;10.63;6.97;;;2.70;99.90;;;;;;5115402;28;20862;-63
2022/12/10 07:32:47;;;;;;;9.93;6.03;;;2.50;99.90;;;;;;5115297;28;20502;-63
2022/12/10 07:35:14;;;;;;;8.37;4.43;;;2.40;99.90;;;;;;5115175;28;20939;-63
2022/12/10 07:37:41;;;;;;;16.03;7.00;;;2.60;99.90;;;;;;5116358;28;20443;-61
2022/12/10 07:40:09;;;;;;;12.97;7.03;;;2.60;99.90;;;;;;5114346;28;20451;-61
2022/12/10 07:42:36;;;;;;;12.23;4.83;;;2.60;99.90;;;;;;5114147;28;20411;-63
2022/12/10 07:45:05;;;;;;;11.93;5.60;;;2.70;99.90;;;;;;5115293;28;20452;-61
2022/12/10 07:47:35;;;;;;;13.40;6.23;;;2.80;99.90;;;;;;5114494;28;20415;-61
2022/12/10 07:50:02;;;;;;;10.00;7.07;;;2.70;99.90;;;;;;5114933;28;20482;-63
2022/12/10 07:52:29;;;;;;;10.07;4.90;;;2.50;99.90;;;;;;5114053;28;20435;-62
2022/12/10 07:54:56;;;;;;;11.53;5.40;;;2.40;99.90;;;;;;5113384;28;20450;-62
2022/12/10 07:57:22;;;;;;;10.57;5.67;;;2.80;99.90;;;;;;5114929;28;20785;-62
2022/12/10 07:59:49;;;;;;;14.43;6.77;;;3.10;99.90;;;;;;5114498;28;20484;-62
2022/12/10 08:02:19;;;;;;;11.97;5.60;;;3.20;99.90;;;;;;5113357;28;20476;-62
2022/12/10 08:04:46;;;;;;;9.80;6.53;;;3.30;99.90;;;;;;5107724;28;20451;-63
2022/12/10 08:07:13;;;;;;;12.77;6.03;;;3.40;99.90;;;;;;5104556;28;20792;-63
2022/12/10 08:09:40;;;;;;;12.67;7.70;;;3.40;99.90;;;;;;5111330;28;20488;-64
2022/12/10 08:12:07;;;;;;;9.50;5.13;;;3.40;99.90;;;;;;5098348;28;20857;-63
2022/12/10 08:14:34;;;;;;;8.27;4.97;;;3.50;99.90;;;;;;5110025;28;20536;-63
2022/12/10 08:17:01;;;;;;;11.43;6.97;;;3.50;99.90;;;;;;5104009;28;20460;-63
2022/12/10 08:19:29;;;;;;;9.47;4.83;;;3.50;99.90;;;;;;5102149;28;20746;-61
2022/12/10 08:21:56;;;;;;;10.77;6.07;;;3.40;99.90;;;;;;5090558;28;20545;-62
2022/12/10 08:24:23;;;;;;;12.80;6.10;;;3.40;99.90;;;;;;5095868;28;20476;-63
2022/12/10 08:26:50;;;;;;;12.53;6.40;;;3.50;99.90;;;;;;5106741;28;20445;-61
2022/12/10 08:29:17;;;;;;;9.30;6.50;;;3.40;99.90;;;;;;5089937;28;20477;-59
2022/12/10 08:31:43;;;;;;;11.63;6.27;;;3.40;99.90;;;;;;5090438;28;20824;-59
2022/12/10 08:34:13;;;;;;;13.67;6.37;;;3.30;99.90;;;;;;5096404;28;20581;-59
2022/12/10 08:36:42;;;;;;;12.27;6.77;;;3.20;99.90;;;;;;5086985;28;20510;-59
2022/12/10 08:39:14;;;;;;;12.93;7.90;;;3.30;99.90;;;;;;5094749;28;20517;-60
2022/12/10 08:41:42;;;;;;;8.80;5.17;;;3.10;99.90;;;;;;5104216;28;20457;-59
2022/12/10 08:44:08;;;;;;;7.90;5.10;;;3.20;99.90;;;;;;5087620;28;21148;-59
2022/12/10 08:46:35;;;;;;;11.90;6.13;;;3.30;99.90;;;;;;5093949;28;20481;-59
2022/12/10 08:49:03;;;;;;;13.10;7.10;;;3.60;99.90;;;;;;5090284;28;20558;-60
2022/12/10 08:51:30;;;;;;;13.30;5.70;;;3.50;99.90;;;;;;5085125;28;20579;-62
2022/12/10 08:53:58;;;;;;;10.23;5.43;;;3.60;99.90;;;;;;5091266;28;21047;-60
2022/12/10 08:56:25;;;;;;;14.20;8.50;;;3.80;99.90;;;;;;5088900;28;20492;-61
2022/12/10 08:58:52;;;;;;;10.70;7.10;;;3.70;99.90;;;;;;5087029;28;20460;-60
2022/12/10 09:01:20;;;;;;;8.17;4.97;;;3.70;99.90;;;;;;5094550;28;20420;-60
2022/12/10 09:03:47;;;;;;;13.33;6.57;;;3.50;99.90;;;;;;5094508;28;20499;-60
2022/12/10 09:06:16;;;;;;;13.10;7.60;;;3.70;99.90;;;;;;5092416;28;21870;-60
2022/12/10 09:08:43;;;;;;;12.87;7.70;;;3.80;99.90;;;;;;5087414;28;20572;-60
2022/12/10 09:11:15;;;;;;;12.63;5.00;;;3.70;99.90;;;;;;5085529;28;21085;-60
2022/12/10 09:13:42;;;;;;;11.40;4.60;;;3.80;99.90;;;;;;5090675;28;20465;-60
2022/12/10 09:16:10;;;;;;;13.30;6.03;;;3.80;99.90;;;;;;5082818;28;20969;-60
2022/12/10 09:18:37;;;;;;;10.53;4.33;;;3.80;99.90;;;;;;5087117;28;20988;-60
2022/12/10 09:21:06;;;;;;;11.70;6.70;;;3.80;99.90;;;;;;5092336;28;20992;-61
2022/12/10 09:23:33;;;;;;;9.17;4.87;;;3.70;99.90;;;;;;5086072;28;21788;-61
2022/12/10 09:26:00;;;;;;;9.33;5.80;;;3.60;99.90;;;;;;5087663;28;20545;-60
2022/12/10 09:28:28;;;;;;;8.33;5.20;;;3.60;99.90;;;;;;5091153;28;20457;-61
2022/12/10 09:31:00;;;;;;;12.27;6.77;;;3.70;99.90;;;;;;5090706;28;20564;-61
2022/12/10 09:33:28;;;;;;;12.00;5.83;;;3.60;99.90;;;;;;5093426;28;20519;-61
2022/12/10 09:35:55;;;;;;;10.00;6.50;;;3.40;99.90;;;;;;5085773;28;20987;-59
2022/12/10 09:38:22;;;;;;;12.90;5.73;;;3.30;99.90;;;;;;5087674;28;20543;-59
2022/12/10 09:40:57;;;;;;;14.90;6.07;;;3.20;99.90;;;;;;5091190;28;20541;-59
2022/12/10 09:43:33;;;;;;;11.43;6.53;;;3.20;99.90;;;;;;5088822;28;20461;-59
2022/12/10 09:46:09;;;;;;;13.47;6.87;;;3.20;99.90;;;;;;5087350;28;20431;-59
2022/12/10 09:48:47;;;;;;;10.43;6.60;;;3.30;99.90;;;;;;5087650;28;20884;-59
2022/12/10 09:51:21;;;;;;;9.07;5.57;;;3.40;99.90;;;;;;5082789;28;20515;-59
2022/12/10 09:53:50;;;;;;;12.00;6.13;;;3.60;99.90;;;;;;5089871;28;20526;-61
2022/12/10 09:56:23;;;;;;;13.30;7.10;;;3.70;99.90;;;;;;5086845;28;20781;-60
2022/12/10 09:58:52;;;;;;;15.93;8.60;;;3.70;99.90;;;;;;5094031;28;20442;-58
2022/12/10 10:01:22;;;;;;;12.90;5.70;;;3.50;99.90;;;;;;5105791;28;20416;-60
2022/12/10 10:03:49;;;;;;;12.43;5.20;;;3.30;99.90;;;;;;5090592;28;20503;-60
2022/12/10 10:06:16;;;;;;;11.23;5.90;;;3.10;99.90;;;;;;5112456;27;20471;-59
2022/12/10 10:08:46;;;;;;;12.30;5.70;;;2.90;99.90;;;;;;5109767;28;20435;-60
2022/12/10 10:11:18;;;;;;;12.40;6.83;;;2.80;99.90;;;;;;5112908;27;20438;-59
2022/12/10 10:13:50;;;;;;;13.63;6.40;;;2.80;99.90;;;;;;5114477;28;20921;-59
2022/12/10 10:16:27;;;;;;;12.57;6.27;;;3.00;99.90;;;;;;5115241;28;20472;-59
2022/12/10 10:18:59;;;;;;;14.10;7.30;;;3.30;99.90;;;;;;5111570;28;20479;-59
2022/12/10 10:21:28;;;;;;;14.67;6.37;;;3.60;99.90;;;;;;5112839;28;20441;-60
2022/12/10 10:23:55;;;;;;;12.20;6.90;;;3.50;99.90;;;;;;5113059;28;20551;-59
2022/12/10 10:26:25;;;;;;;11.30;5.90;;;3.40;99.90;;;;;;5105708;28;20855;-59
2022/12/10 10:28:58;;;;;;;10.53;5.83;;;3.30;99.90;;;;;;5113575;27;20545;-60
2022/12/10 10:31:28;;;;;;;11.57;6.30;;;3.40;99.90;;;;;;5113825;28;21024;-60
2022/12/10 10:33:58;;;;;;;10.67;5.53;;;3.10;99.90;;;;;;5112609;28;21405;-59
2022/12/10 10:36:27;;;;;;;14.30;6.33;;;3.10;99.90;;;;;;5112126;28;20542;-60
2022/12/10 10:38:55;;;;;;;10.00;5.43;;;3.10;99.90;;;;;;5108283;27;20438;-59
2022/12/10 10:41:24;;;;;;;10.73;5.70;;;3.20;99.90;;;;;;5108527;28;20491;-60
2022/12/10 10:44:01;;;;;;;12.83;6.00;;;3.40;99.90;;;;;;5111802;28;20455;-58
2022/12/10 10:46:29;;;;;;;11.53;6.30;;;3.70;99.90;;;;;;5111132;28;20463;-59
2022/12/10 10:49:22;;;;;;;10.97;6.20;;;3.90;99.90;;;;;;5112979;28;20907;-59
2022/12/10 10:51:50;;;;;;;10.67;6.70;;;3.70;99.90;;;;;;5110952;28;20458;-59
2022/12/10 10:54:34;;;;;;;12.20;5.53;;;3.80;99.90;;;;;;5111699;28;20439;-59
2022/12/10 10:57:04;;;;;;;10.77;5.17;;;3.90;99.90;;;;;;5111219;28;20970;-59
2022/12/10 10:59:33;;;;;;;11.80;5.67;;;4.00;99.90;;;;;;5112880;28;20612;-59
2022/12/10 11:02:05;;;;;;;15.00;6.03;;;4.10;99.90;;;;;;5111314;28;20818;-59
2022/12/10 11:04:38;;;;;;;13.07;5.50;;;4.20;99.90;;;;;;5109446;28;20545;-60
2022/12/10 11:07:13;;;;;;;10.53;5.80;;;4.20;99.90;;;;;;5111417;28;20453;-59
2022/12/10 11:09:40;;;;;;;14.13;7.17;;;4.20;99.90;;;;;;5112098;28;20587;-59
2022/12/10 11:12:29;;;;;;;10.40;6.30;;;3.80;99.90;;;;;;5114635;27;20544;-61
2022/12/10 11:14:57;;;;;;;6.20;4.70;;;3.60;99.90;;;;;;5103648;27;20488;-60
2022/12/10 11:17:26;;;;;;;11.33;5.10;;;3.20;99.90;;;;;;5113983;28;20441;-60
2022/12/10 11:20:00;;;;;;;12.53;6.30;;;3.30;99.90;;;;;;5115729;27;20559;-59
2022/12/10 11:22:29;;;;;;;13.07;5.30;;;3.70;99.90;;;;;;5113345;27;20465;-60
2022/12/10 11:24:56;;;;;;;10.03;5.50;;;3.80;99.90;;;;;;5112705;27;20526;-59
2022/12/10 11:27:41;;;;;;;9.30;5.10;;;3.90;99.90;;;;;;5114351;28;20464;-59
2022/12/10 11:30:13;;;;;;;11.60;5.10;;;3.80;99.90;;;;;;5120597;27;20594;-59
2022/12/10 11:32:54;;;;;;;10.30;5.10;;;3.60;99.90;;;;;;5117281;27;20503;-58
2022/12/10 11:35:34;;;;;;;10.40;5.03;;;3.70;99.90;;;;;;5114367;28;20528;-59
2022/12/10 11:38:10;;;;;;;10.70;5.27;;;4.00;99.90;;;;;;5112695;28;20915;-59
2022/12/10 11:40:46;;;;;;;4.73;3.20;;;4.20;99.90;;;;;;5112830;28;20539;-59
2022/12/10 11:43:29;;;;;;;9.73;6.23;;;4.30;99.90;;;;;;5113911;28;20444;-60
2022/12/10 11:46:06;;;;;;;8.40;4.13;;;4.20;99.90;;;;;;5112248;28;20903;-59
2022/12/10 11:48:56;;;;;;;9.93;4.47;;;4.00;99.90;;;;;;5111903;28;20902;-59
2022/12/10 11:51:31;;;;;;;9.80;4.83;;;3.90;99.90;;;;;;5111479;28;20468;-60
2022/12/10 11:54:12;;;;;;;9.13;5.30;;;3.80;99.90;;;;;;5107692;28;20499;-58
2022/12/10 11:56:43;;;;;;;10.30;4.87;;;3.90;99.90;;;;;;5113863;28;20874;-58
2022/12/10 11:59:22;;;;;;;8.80;3.50;;;3.90;99.90;;;;;;5114843;28;20482;-59
2022/12/10 12:02:06;;;;;;;9.60;4.00;;;3.90;99.90;;;;;;5100764;28;20483;-59
2022/12/10 12:04:46;;;;;;;8.80;4.10;;;3.90;99.90;;;;;;5113317;28;20520;-58
2022/12/10 12:07:39;;;;;;;10.73;4.40;;;3.80;99.90;;;;;;5115513;28;20833;-59
2022/12/10 12:10:36;;;;;;;5.27;3.37;;;3.90;99.90;;;;;;5114453;28;20480;-59
2022/12/10 12:13:09;;;;;;;10.50;4.47;;;4.00;99.90;;;;;;5116218;28;20448;-58
2022/12/10 12:15:41;;;;;;;11.53;5.57;;;4.10;99.90;;;;;;5112378;28;20527;-58
2022/12/10 12:18:17;;;;;;;8.77;4.60;;;4.10;99.90;;;;;;5076730;28;20429;-57
2022/12/10 12:20:50;;;;;;;10.03;5.40;;;4.20;99.90;;;;;;5081287;28;20457;-58
2022/12/10 12:23:24;;;;;;;9.47;5.00;;;4.30;99.90;;;;;;5077546;28;20474;-58
2022/12/10 12:25:58;;;;;;;9.10;6.10;;;4.30;99.90;;;;;;5077311;28;20475;-59
2022/12/10 12:28:31;;;;;;;7.47;4.57;;;4.10;99.90;;;;;;5076991;28;20453;-59
2022/12/10 12:31:03;;;;;;;8.07;4.67;;;4.20;99.90;;;;;;5075718;28;20503;-59
2022/12/10 12:33:41;;;;;;;12.10;6.07;;;4.10;99.90;;;;;;5083764;28;20497;-59
2022/12/10 12:36:15;;;;;;;10.30;4.00;;;4.30;99.90;;;;;;5093880;28;20521;-59
2022/12/10 12:38:49;;;;;;;12.33;6.57;;;4.30;99.90;;;;;;5087950;28;20480;-60
2022/12/10 12:41:22;;;;;;;12.10;5.40;;;4.30;99.90;;;;;;5094058;28;20789;-60
2022/12/10 12:43:56;;;;;;;8.70;5.17;;;4.50;99.90;;;;;;5104376;28;20441;-59
2022/12/10 12:46:31;;;;;;;9.07;4.80;;;4.60;99.90;;;;;;5101359;28;20526;-61
2022/12/10 12:49:02;;;;;;;8.77;3.53;;;4.50;99.90;;;;;;5112828;28;20470;-59
2022/12/10 12:51:34;;;;;;;7.50;3.53;;;4.60;99.90;;;;;;5102518;28;20556;-60
2022/12/10 12:54:01;;;;;;;7.00;3.70;;;4.70;99.90;;;;;;5106041;28;20592;-60
2022/12/10 12:56:46;;;;;;;9.10;4.53;;;4.60;99.90;;;;;;5097786;28;20474;-59
2022/12/10 12:59:24;;;;;;;10.63;3.50;;;4.50;99.90;;;;;;5097155;28;20464;-59
2022/12/10 13:01:58;;;;;;;6.63;3.10;;;4.50;99.90;;;;;;5096331;28;20888;-59
2022/12/10 13:04:26;;;;;;;10.90;4.73;;;4.40;99.90;;;;;;5101079;28;20793;-59
2022/12/10 13:07:23;;;;;;;9.00;4.40;;;4.30;99.90;;;;;;5115709;28;20823;-59
2022/12/10 13:09:52;;;;;;;6.30;2.83;;;4.00;99.90;;;;;;5114795;28;20504;-59
2022/12/10 13:12:30;;;;;;;10.43;4.80;;;3.90;99.90;;;;;;5117080;27;20535;-59
2022/12/10 13:15:18;;;;;;;7.87;4.87;;;3.80;99.90;;;;;;5104985;28;20547;-60
2022/12/10 13:18:20;;;;;;;8.13;4.87;;;3.70;99.90;;;;;;5119407;27;20829;-59